createdAt,value
2023-04-02T00:01:40.567Z,6.80
2023-04-02T00:07:17.751Z,6.80
2023-04-02T00:12:33.682Z,6.70
2023-04-02T00:17:49.645Z,6.60
2023-04-02T00:23:07.365Z,6.60
2023-04-02T00:28:25.123Z,6.60
2023-04-02T00:33:44.030Z,6.50
2023-04-02T00:39:01.961Z,6.40
2023-04-02T00:44:22.024Z,6.40
2023-04-02T00:49:42.488Z,6.20
2023-04-02T00:55:10.704Z,6.20
2023-04-02T01:00:35.551Z,6.10
2023-04-02T01:06:11.110Z,6.10
2023-04-02T01:11:29.826Z,6.00
2023-04-02T01:16:54.254Z,6.00
2023-04-02T01:22:21.933Z,6.10
2023-04-02T01:27:57.438Z,6.20
2023-04-02T01:33:13.640Z,6.10
2023-04-02T01:38:40.017Z,6.10
2023-04-02T01:44:08.245Z,6.10
2023-04-02T01:49:24.670Z,6.10
2023-04-02T01:54:41.622Z,6.10
2023-04-02T02:00:00.344Z,6.00
2023-04-02T02:05:20.469Z,5.70
2023-04-02T02:10:39.722Z,5.70
2023-04-02T02:16:01.800Z,5.80
2023-04-02T02:21:27.764Z,5.60
2023-04-02T02:26:46.035Z,5.50
2023-04-02T02:32:03.451Z,5.50
2023-04-02T02:37:24.989Z,5.50
2023-04-02T02:42:48.264Z,5.50
2023-04-02T02:48:08.844Z,5.60
2023-04-02T02:53:25.644Z,5.50
2023-04-02T02:58:41.774Z,5.50
2023-04-02T03:03:58.038Z,5.50
2023-04-02T03:09:28.341Z,5.50
2023-04-02T03:14:56.028Z,5.50
2023-04-02T03:20:12.069Z,5.40
2023-04-02T03:25:39.159Z,5.30
2023-04-02T03:31:16.085Z,5.30
2023-04-02T03:36:43.790Z,5.20
2023-04-02T03:42:07.565Z,5.30
2023-04-02T03:47:38.119Z,5.20
2023-04-02T03:52:54.217Z,5.00
2023-04-02T03:58:25.831Z,4.70
2023-04-02T04:03:54.339Z,4.80
2023-04-02T04:09:26.340Z,4.70
2023-04-02T04:14:49.130Z,4.70
2023-04-02T04:20:34.164Z,4.60
2023-04-02T04:26:21.342Z,4.60
2023-04-02T04:31:49.714Z,4.50
2023-04-02T04:37:08.123Z,4.30
2023-04-02T04:42:31.295Z,4.30
2023-04-02T04:47:57.559Z,4.30
2023-04-02T04:53:17.894Z,4.20
2023-04-02T04:58:36.381Z,4.30
2023-04-02T05:04:16.593Z,4.40
2023-04-02T05:09:41.939Z,4.50
2023-04-02T05:15:01.318Z,4.60
2023-04-02T05:20:21.932Z,4.50
2023-04-02T05:25:49.869Z,4.40
2023-04-02T05:31:36.030Z,4.70
2023-04-02T05:36:52.306Z,4.60
2023-04-02T05:42:18.992Z,4.70
2023-04-02T05:47:41.287Z,4.80
2023-04-02T05:53:12.723Z,4.90
2023-04-02T05:58:45.327Z,4.70
2023-04-02T06:04:13.919Z,4.90
2023-04-02T06:10:05.235Z,5.30
2023-04-02T06:15:23.344Z,5.90
2023-04-02T06:20:39.064Z,6.20
2023-04-02T06:26:41.629Z,6.80
2023-04-02T06:32:01.650Z,7.10
2023-04-02T06:37:33.518Z,7.10
2023-04-02T06:42:56.427Z,7.40
2023-04-02T06:48:19.947Z,8.10
2023-04-02T06:53:35.818Z,8.30
2023-04-02T06:58:51.485Z,8.50
2023-04-02T07:04:07.695Z,8.60
2023-04-02T07:09:23.595Z,8.70
2023-04-02T07:14:39.543Z,10.30
2023-04-02T07:19:54.953Z,11.10
2023-04-02T07:25:11.121Z,10.60
2023-04-02T07:30:26.852Z,10.80
2023-04-02T07:35:43.857Z,11.50
2023-04-02T07:41:06.517Z,12.80
2023-04-02T07:46:22.522Z,14.80
2023-04-02T07:51:38.524Z,16.20
2023-04-02T07:56:54.697Z,16.10
2023-04-02T08:02:22.062Z,17.20
2023-04-02T08:07:39.230Z,19.60
2023-04-02T08:12:55.086Z,20.30
2023-04-02T08:18:11.385Z,18.20
2023-04-02T08:23:27.962Z,16.30
2023-04-02T08:28:43.692Z,16.40
2023-04-02T08:33:59.680Z,16.70
2023-04-02T08:39:15.750Z,16.60
2023-04-02T08:45:08.127Z,17.40
2023-04-02T08:50:36.522Z,17.90
2023-04-02T08:56:06.028Z,18.20
2023-04-02T09:01:22.172Z,18.60
2023-04-02T09:06:37.879Z,17.80
2023-04-02T09:12:05.322Z,18.90
2023-04-02T09:17:22.348Z,19.30
2023-04-02T09:22:39.136Z,19.90
2023-04-02T09:27:57.234Z,20.50
2023-04-02T09:33:13.109Z,23.40
2023-04-02T09:38:33.285Z,23.50
2023-04-02T09:43:49.303Z,22.10
2023-04-02T09:49:06.608Z,20.40
2023-04-02T09:54:22.998Z,20.20
2023-04-02T09:59:39.087Z,18.90
2023-04-02T10:04:54.982Z,17.30
2023-04-02T10:10:19.559Z,16.50
2023-04-02T10:16:05.612Z,16.20
2023-04-02T10:21:38.971Z,16.40
2023-04-02T10:27:18.183Z,15.90
2023-04-02T10:32:43.545Z,15.80
2023-04-02T10:38:29.665Z,15.70
2023-04-02T10:44:30.670Z,15.70
2023-04-02T10:50:04.104Z,16.00
2023-04-02T10:55:28.439Z,16.90
2023-04-02T11:00:46.941Z,16.80
2023-04-02T11:06:15.133Z,16.90
2023-04-02T11:11:43.478Z,16.50
2023-04-02T11:17:03.306Z,16.00
2023-04-02T11:22:22.540Z,15.30
2023-04-02T11:27:38.806Z,15.70
2023-04-02T11:33:18.644Z,15.80
2023-04-02T11:38:46.640Z,15.80
2023-04-02T11:44:02.823Z,15.90
2023-04-02T11:49:36.360Z,15.60
2023-04-02T11:54:58.923Z,14.90
2023-04-02T12:00:31.120Z,15.20
2023-04-02T12:05:59.003Z,15.20
2023-04-02T12:11:16.085Z,15.30
2023-04-02T12:16:35.131Z,15.30
2023-04-02T12:21:53.385Z,15.10
2023-04-02T12:27:17.492Z,15.20
2023-04-02T12:32:33.525Z,15.60
2023-04-02T12:37:54.185Z,15.30
2023-04-02T12:43:27.838Z,14.30
2023-04-02T12:48:43.653Z,14.00
2023-04-02T12:53:59.499Z,13.80
2023-04-02T12:59:29.693Z,13.20
2023-04-02T13:04:54.591Z,13.10
2023-04-02T13:10:26.028Z,12.90
2023-04-02T13:15:43.972Z,13.30
2023-04-02T13:21:21.415Z,13.60
2023-04-02T13:26:37.331Z,14.00
2023-04-02T13:31:56.071Z,13.70
2023-04-02T13:37:13.546Z,13.70
2023-04-02T13:42:29.108Z,13.70
2023-04-02T13:47:45.141Z,13.80
2023-04-02T13:53:09.689Z,14.00
2023-04-02T13:58:26.743Z,13.90
2023-04-02T14:03:42.857Z,14.20
2023-04-02T14:08:58.674Z,14.40
2023-04-02T14:14:33.183Z,14.50
2023-04-02T14:20:13.642Z,14.50
2023-04-02T14:26:19.302Z,14.50
2023-04-02T14:31:44.426Z,14.20
2023-04-02T14:37:26.905Z,14.00
2023-04-02T14:42:57.650Z,14.10
2023-04-02T14:48:25.342Z,14.20
2023-04-02T14:53:53.396Z,14.20
2023-04-02T14:59:28.187Z,14.40
2023-04-02T15:04:49.981Z,14.40
2023-04-02T15:10:22.999Z,14.50
2023-04-02T15:16:13.416Z,14.50
2023-04-02T15:21:46.348Z,14.30
2023-04-02T15:27:27.598Z,14.10
2023-04-02T15:32:44.098Z,14.00
2023-04-02T15:38:11.949Z,14.00
2023-04-02T15:43:57.062Z,14.00
2023-04-02T15:49:37.193Z,13.90
2023-04-02T15:55:09.859Z,13.80
2023-04-02T16:00:31.045Z,14.00
2023-04-02T16:05:58.496Z,14.00
2023-04-02T16:11:16.114Z,13.80
2023-04-02T16:16:36.350Z,13.70
2023-04-02T16:22:24.596Z,13.70
2023-04-02T16:28:02.038Z,13.70
2023-04-02T16:33:32.202Z,13.70
2023-04-02T16:38:51.600Z,13.60
2023-04-02T16:44:34.279Z,13.70
2023-04-02T16:49:56.020Z,13.60
2023-04-02T16:55:46.502Z,13.30
2023-04-02T17:01:29.218Z,13.00
2023-04-02T17:07:12.806Z,12.60
2023-04-02T17:12:45.269Z,12.30
2023-04-02T17:18:02.371Z,12.00
2023-04-02T17:23:19.794Z,11.70
2023-04-02T17:28:37.251Z,11.60
2023-04-02T17:33:52.961Z,11.40
2023-04-02T17:39:08.645Z,11.30
2023-04-02T17:45:01.323Z,11.20
2023-04-02T17:50:39.305Z,11.10
2023-04-02T17:56:07.427Z,10.90
2023-04-02T18:01:39.028Z,10.90
2023-04-02T18:06:54.432Z,10.70
2023-04-02T18:12:45.352Z,10.60
2023-04-02T18:18:40.792Z,10.50
2023-04-02T18:24:02.346Z,10.40
2023-04-02T18:29:26.917Z,10.30
2023-04-02T18:34:57.468Z,10.20
2023-04-02T18:40:51.722Z,10.30
2023-04-02T18:46:22.742Z,10.20
2023-04-02T18:51:40.633Z,10.10
2023-04-02T18:56:56.513Z,10.00
2023-04-02T19:02:37.629Z,10.00
2023-04-02T19:07:59.720Z,9.90
2023-04-02T19:13:18.496Z,9.90
2023-04-02T19:18:58.181Z,10.00
2023-04-02T19:24:23.075Z,10.00
2023-04-02T19:29:41.812Z,9.90
2023-04-02T19:35:28.639Z,9.80
2023-04-02T19:40:57.387Z,9.80
2023-04-02T19:46:13.413Z,9.60
2023-04-02T19:51:29.705Z,9.50
2023-04-02T19:56:46.638Z,9.60
2023-04-02T20:02:06.308Z,9.70
2023-04-02T20:07:23.040Z,9.70
2023-04-02T20:12:38.633Z,9.70
2023-04-02T20:17:54.052Z,9.60
2023-04-02T20:23:09.782Z,9.70
2023-04-02T20:28:28.081Z,9.70
2023-04-02T20:33:44.815Z,9.80
2023-04-02T20:39:00.914Z,9.80
2023-04-02T20:44:17.180Z,9.60
2023-04-02T20:49:32.847Z,9.60
2023-04-02T20:54:49.802Z,9.50
2023-04-02T21:00:08.670Z,9.60
2023-04-02T21:05:24.339Z,9.70
2023-04-02T21:10:41.113Z,9.60
2023-04-02T21:15:57.013Z,9.60
2023-04-02T21:21:14.104Z,9.40
2023-04-02T21:26:33.459Z,9.40
2023-04-02T21:31:50.697Z,9.40
2023-04-02T21:37:06.427Z,9.40
2023-04-02T21:42:22.699Z,9.30
2023-04-02T21:47:38.659Z,9.30
2023-04-02T21:52:54.568Z,9.30
2023-04-02T21:58:10.400Z,9.30
2023-04-02T22:03:31.729Z,9.20
2023-04-02T22:08:59.347Z,9.20
2023-04-02T22:14:15.946Z,9.20
2023-04-02T22:19:33.356Z,9.20
2023-04-02T22:24:48.944Z,9.10
2023-04-02T22:30:06.636Z,9.10
2023-04-02T22:35:22.379Z,9.10
2023-04-02T22:40:38.327Z,9.10
2023-04-02T22:45:54.145Z,9.10
2023-04-02T22:51:11.915Z,9.10
2023-04-02T22:56:32.123Z,9.10
2023-04-02T23:01:48.215Z,9.10
2023-04-02T23:07:04.466Z,9.20
2023-04-02T23:12:21.424Z,9.20
2023-04-02T23:17:38.169Z,9.20
2023-04-02T23:22:54.033Z,9.20
2023-04-02T23:28:12.993Z,9.40
2023-04-02T23:33:28.361Z,9.70
2023-04-02T23:38:44.247Z,9.80
2023-04-02T23:44:00.786Z,9.90
2023-04-02T23:49:16.420Z,10.00
2023-04-02T23:54:32.506Z,10.00
2023-04-02T23:59:48.410Z,10.00
